createdAt,value
2023-03-24T00:01:59.127Z,98281.01
2023-03-24T00:05:16.747Z,98280.20
2023-03-24T00:08:36.638Z,98280.20
2023-03-24T00:11:53.676Z,98277.77
2023-03-24T00:15:10.810Z,98274.27
2023-03-24T00:18:27.445Z,98269.15
2023-03-24T00:21:44.364Z,98276.94
2023-03-24T00:25:04.161Z,98280.64
2023-03-24T00:28:20.410Z,98276.94
2023-03-24T00:31:38.586Z,98278.80
2023-03-24T00:34:55.323Z,98273.22
2023-03-24T00:38:11.825Z,98276.29
2023-03-24T00:41:30.006Z,98266.60
2023-03-24T00:44:46.830Z,98265.80
2023-03-24T00:48:06.332Z,98264.97
2023-03-24T00:51:22.820Z,98255.11
2023-03-24T00:54:39.272Z,98256.38
2023-03-24T00:58:01.354Z,98253.47
2023-03-24T01:01:18.663Z,98252.08
2023-03-24T01:04:37.157Z,98245.09
2023-03-24T01:07:53.629Z,98239.15
2023-03-24T01:11:11.831Z,98236.11
2023-03-24T01:14:28.313Z,98240.66
2023-03-24T01:17:45.014Z,98246.23
2023-03-24T01:21:02.492Z,98244.84
2023-03-24T01:24:19.026Z,98241.13
2023-03-24T01:27:35.483Z,98239.49
2023-03-24T01:30:52.623Z,98239.13
2023-03-24T01:34:09.203Z,98232.38
2023-03-24T01:37:25.618Z,98226.20
2023-03-24T01:40:45.509Z,98230.75
2023-03-24T01:44:03.118Z,98229.71
2023-03-24T01:47:19.709Z,98226.08
2023-03-24T01:50:36.408Z,98223.64
2023-03-24T01:53:59.695Z,98216.22
2023-03-24T01:57:22.121Z,98225.51
2023-03-24T02:00:40.542Z,98222.00
2023-03-24T02:04:05.453Z,98225.72
2023-03-24T02:07:28.733Z,98209.91
2023-03-24T02:10:46.617Z,98224.68
2023-03-24T02:14:03.928Z,98218.30
2023-03-24T02:17:49.051Z,98215.86
2023-03-24T02:21:48.009Z,98209.48
2023-03-24T02:25:42.460Z,98207.61
2023-03-24T02:29:08.604Z,98209.68
2023-03-24T02:33:01.485Z,98202.50
2023-03-24T02:37:03.166Z,98200.86
2023-03-24T02:40:42.251Z,98206.44
2023-03-24T02:44:00.759Z,98190.17
2023-03-24T02:47:23.751Z,98196.55
2023-03-24T02:50:45.635Z,98198.19
2023-03-24T02:54:09.358Z,98192.61
2023-03-24T02:57:32.141Z,98197.52
2023-03-24T03:01:11.514Z,98194.61
2023-03-24T03:04:34.891Z,98188.42
2023-03-24T03:07:54.867Z,98185.75
2023-03-24T03:11:16.024Z,98178.34
2023-03-24T03:14:38.746Z,98170.31
2023-03-24T03:17:59.905Z,98170.31
2023-03-24T03:21:20.687Z,98167.64
2023-03-24T03:24:41.349Z,98169.88
2023-03-24T03:27:59.845Z,98166.38
2023-03-24T03:31:20.503Z,98173.34
2023-03-24T03:34:44.576Z,98171.72
2023-03-24T03:38:07.559Z,98175.66
2023-03-24T03:41:26.131Z,98169.28
2023-03-24T03:44:43.057Z,98171.16
2023-03-24T03:48:01.294Z,98169.52
2023-03-24T03:51:19.411Z,98173.59
2023-03-24T03:54:39.822Z,98172.55
2023-03-24T03:57:56.819Z,98166.38
2023-03-24T04:01:26.133Z,98159.63
2023-03-24T04:05:08.746Z,98148.58
2023-03-24T04:08:38.319Z,98148.44
2023-03-24T04:12:26.866Z,98146.89
2023-03-24T04:15:49.633Z,98144.50
2023-03-24T04:37:52.074Z,98145.28
2023-03-24T04:41:14.052Z,98149.80
2023-03-24T04:44:34.014Z,98142.53
2023-03-24T04:47:58.605Z,98148.98
2023-03-24T04:51:33.842Z,98146.73
2023-03-24T04:54:57.518Z,98146.58
2023-03-24T04:58:14.456Z,98153.66
2023-03-24T05:01:33.975Z,98156.61
2023-03-24T05:04:55.471Z,98159.15
2023-03-24T05:08:14.153Z,98166.84
2023-03-24T05:11:30.596Z,98159.46
2023-03-24T05:14:48.569Z,98161.15
2023-03-24T05:18:05.151Z,98161.78
2023-03-24T05:21:23.589Z,98169.02
2023-03-24T05:24:41.237Z,98163.30
2023-03-24T05:27:58.464Z,98168.25
2023-03-24T05:31:15.393Z,98170.28
2023-03-24T05:34:36.887Z,98167.22
2023-03-24T05:37:55.395Z,98167.78
2023-03-24T05:41:13.033Z,98171.59
2023-03-24T05:44:30.844Z,98176.39
2023-03-24T05:47:56.007Z,98179.77
2023-03-24T05:51:12.327Z,98181.14
2023-03-24T05:54:29.220Z,98179.02
2023-03-24T05:57:50.869Z,98185.31
2023-03-24T06:01:14.015Z,98183.86
2023-03-24T06:04:30.667Z,98189.55
2023-03-24T06:07:49.749Z,98186.68
2023-03-24T06:11:10.565Z,98183.78
2023-03-24T06:14:28.713Z,98183.41
2023-03-24T06:17:47.951Z,98191.18
2023-03-24T06:21:06.308Z,98190.38
2023-03-24T06:24:22.646Z,98190.22
2023-03-24T06:27:43.179Z,98196.36
2023-03-24T06:30:59.714Z,98186.52
2023-03-24T06:34:20.771Z,98190.38
2023-03-24T06:37:40.495Z,98186.95
2023-03-24T06:40:58.164Z,98193.53
2023-03-24T06:44:14.813Z,98190.48
2023-03-24T06:47:31.815Z,98177.54
2023-03-24T06:50:48.457Z,98173.88
2023-03-24T06:54:05.208Z,98168.84
2023-03-24T06:57:22.653Z,98166.98
2023-03-24T07:00:44.321Z,98167.85
2023-03-24T07:04:03.159Z,98175.45
2023-03-24T07:11:03.338Z,98168.01
2023-03-24T07:14:22.323Z,98171.41
2023-03-24T07:17:38.712Z,98167.34
2023-03-24T07:21:09.179Z,98169.66
2023-03-24T07:24:26.394Z,98171.16
2023-03-24T07:27:45.688Z,98174.13
2023-03-24T07:31:02.537Z,98170.22
2023-03-24T07:34:19.303Z,98176.91
2023-03-24T07:37:35.847Z,98161.89
2023-03-24T07:40:54.817Z,98162.63
2023-03-24T07:44:14.227Z,98166.00
2023-03-24T07:47:35.281Z,98160.72
2023-03-24T07:50:52.072Z,98159.80
2023-03-24T07:54:19.368Z,98156.11
2023-03-24T07:57:38.311Z,98154.05
2023-03-24T08:00:56.051Z,98151.29
2023-03-24T08:04:16.120Z,98139.11
2023-03-24T08:07:37.319Z,98134.13
2023-03-24T08:10:53.564Z,98133.20
2023-03-24T08:14:10.122Z,98133.42
2023-03-24T08:17:26.745Z,98127.70
2023-03-24T08:20:43.304Z,98118.07
2023-03-24T08:24:00.235Z,98117.72
2023-03-24T08:27:18.030Z,98118.86
2023-03-24T08:30:36.284Z,98106.28
2023-03-24T08:33:53.686Z,98094.45
2023-03-24T08:37:10.128Z,98093.44
2023-03-24T08:40:29.663Z,98100.02
2023-03-24T08:43:47.081Z,98096.15
2023-03-24T08:47:03.350Z,98093.73
2023-03-24T08:50:20.957Z,98100.38
2023-03-24T08:53:37.456Z,98091.94
2023-03-24T08:56:55.078Z,98099.55
2023-03-24T09:00:16.093Z,98086.05
2023-03-24T09:03:33.147Z,98083.00
2023-03-24T09:06:50.717Z,98084.63
2023-03-24T09:10:07.183Z,98083.31
2023-03-24T09:13:25.964Z,98076.74
2023-03-24T09:16:46.143Z,98071.91
2023-03-24T09:20:03.270Z,98070.72
2023-03-24T09:23:23.015Z,98073.62
2023-03-24T09:26:45.412Z,98067.41
2023-03-24T09:30:02.021Z,98053.05
2023-03-24T09:33:18.768Z,98052.38
2023-03-24T09:36:35.442Z,98044.41
2023-03-24T09:39:51.944Z,98038.94
2023-03-24T09:43:14.191Z,98044.21
2023-03-24T09:46:37.272Z,98031.13
2023-03-24T09:49:56.228Z,98028.70
2023-03-24T09:53:22.306Z,98023.63
2023-03-24T09:56:42.165Z,98014.48
2023-03-24T09:59:58.694Z,98014.48
2023-03-24T10:03:26.441Z,98007.76
2023-03-24T10:06:47.583Z,98010.73
2023-03-24T10:10:07.275Z,98015.04
2023-03-24T10:13:42.265Z,98009.09
2023-03-24T10:17:05.380Z,98001.25
2023-03-24T10:20:32.605Z,98006.63
2023-03-24T10:23:54.588Z,97993.95
2023-03-24T10:27:17.792Z,97992.90
2023-03-24T10:30:38.468Z,97983.38
2023-03-24T10:33:56.704Z,97973.95
2023-03-24T10:37:15.159Z,97972.94
2023-03-24T10:40:35.954Z,97972.45
2023-03-24T10:43:58.335Z,97970.45
2023-03-24T10:47:17.406Z,97964.47
2023-03-24T10:50:39.277Z,97970.46
2023-03-24T10:53:57.478Z,97964.27
2023-03-24T10:57:18.731Z,97956.36
2023-03-24T11:00:40.387Z,97961.27
2023-03-24T11:03:57.326Z,97960.14
2023-03-24T11:07:21.738Z,97946.30
2023-03-24T11:10:38.866Z,97950.67
2023-03-24T11:14:02.408Z,97944.26
2023-03-24T11:17:22.407Z,97938.26
2023-03-24T11:20:43.574Z,97934.39
2023-03-24T11:24:02.105Z,97930.55
2023-03-24T11:27:22.998Z,97934.08
2023-03-24T11:30:47.315Z,97923.31
2023-03-24T11:34:08.588Z,97918.41
2023-03-24T11:37:27.888Z,97908.78
2023-03-24T11:40:44.473Z,97900.87
2023-03-24T11:44:10.866Z,97900.53
2023-03-24T11:47:38.240Z,97893.00
2023-03-24T11:50:55.322Z,97895.17
2023-03-24T11:54:17.903Z,97882.45
2023-03-24T11:57:49.309Z,97881.06
2023-03-24T12:01:10.941Z,97874.25
2023-03-24T12:04:42.921Z,97880.91
2023-03-24T12:08:22.895Z,97873.59
2023-03-24T12:11:48.885Z,97866.94
2023-03-24T12:15:28.873Z,97870.19
2023-03-24T12:19:00.022Z,97867.05
2023-03-24T12:22:31.561Z,97864.47
2023-03-24T12:26:05.680Z,97863.91
2023-03-24T12:29:59.377Z,97864.98
2023-03-24T12:33:32.216Z,97857.20
2023-03-24T12:36:57.209Z,97863.44
2023-03-24T12:40:36.914Z,97859.38
2023-03-24T12:44:07.444Z,97846.69
2023-03-24T12:47:36.050Z,97854.55
2023-03-24T12:51:00.348Z,97844.83
2023-03-24T12:54:29.410Z,97845.11
2023-03-24T12:57:53.867Z,97840.55
2023-03-24T13:01:16.674Z,97839.44
2023-03-24T13:04:36.937Z,97828.94
2023-03-24T13:07:56.387Z,97820.56
2023-03-24T13:11:26.742Z,97821.16
2023-03-24T13:14:41.375Z,97824.91
2023-03-24T13:18:07.693Z,97819.23
2023-03-24T13:21:28.756Z,97816.02
2023-03-24T13:24:45.383Z,97808.98
2023-03-24T13:28:06.085Z,97801.43
2023-03-24T13:31:24.418Z,97808.80
2023-03-24T13:34:41.699Z,97812.31
2023-03-24T13:38:03.162Z,97813.94
2023-03-24T13:41:27.571Z,97808.30
2023-03-24T13:44:50.564Z,97805.63
2023-03-24T13:48:26.785Z,97807.22
2023-03-24T13:51:46.581Z,97802.34
2023-03-24T13:55:06.946Z,97796.95
2023-03-24T13:58:29.162Z,97795.09
2023-03-24T14:01:50.642Z,97794.83
2023-03-24T14:05:34.166Z,97794.83
2023-03-24T14:09:11.982Z,97793.50
2023-03-24T14:12:31.716Z,97788.37
2023-03-24T14:15:53.260Z,97791.10
2023-03-24T14:19:37.265Z,97790.04
2023-03-24T14:22:55.503Z,97784.14
2023-03-24T14:26:14.242Z,97783.88
2023-03-24T14:30:00.224Z,97780.63
2023-03-24T14:33:32.153Z,97773.38
2023-03-24T14:36:51.022Z,97773.34
2023-03-24T14:40:07.080Z,97760.44
2023-03-24T14:43:33.747Z,97750.48
2023-03-24T14:46:54.906Z,97744.56
2023-03-24T14:50:18.441Z,97747.27
2023-03-24T14:53:35.056Z,97750.77
2023-03-24T14:56:57.956Z,97739.20
2023-03-24T15:00:23.025Z,97729.23
2023-03-24T15:03:47.000Z,97722.77
2023-03-24T15:07:04.174Z,97730.58
2023-03-24T15:10:26.865Z,97727.08
2023-03-24T15:13:47.213Z,97721.98
2023-03-24T15:17:07.172Z,97719.01
2023-03-24T15:20:35.154Z,97712.28
2023-03-24T15:23:56.532Z,97715.25
2023-03-24T15:27:33.683Z,97711.47
2023-03-24T15:30:50.526Z,97710.94
2023-03-24T15:34:30.759Z,97704.47
2023-03-24T15:37:49.291Z,97704.22
2023-03-24T15:41:10.454Z,97706.36
2023-03-24T15:44:32.490Z,97699.91
2023-03-24T15:47:50.699Z,97701.27
2023-03-24T15:51:10.770Z,97710.94
2023-03-24T15:54:37.540Z,97699.66
2023-03-24T15:57:57.288Z,97705.30
2023-03-24T16:01:19.906Z,97705.57
2023-03-24T16:04:39.287Z,97703.16
2023-03-24T16:08:05.200Z,97707.45
2023-03-24T16:11:26.077Z,97699.65
2023-03-24T16:14:42.906Z,97706.34
2023-03-24T16:17:59.377Z,97706.63
2023-03-24T16:21:22.743Z,97706.59
2023-03-24T16:24:39.473Z,97698.00
2023-03-24T16:27:55.838Z,97701.77
2023-03-24T16:31:20.747Z,97704.73
2023-03-24T16:34:37.665Z,97710.07
2023-03-24T16:37:54.010Z,97716.55
2023-03-24T16:41:12.066Z,97728.09
2023-03-24T16:44:29.567Z,97726.74
2023-03-24T16:47:47.711Z,97736.15
2023-03-24T16:51:04.927Z,97736.14
2023-03-24T16:54:21.849Z,97742.30
2023-03-24T16:57:38.501Z,97737.70
2023-03-24T17:00:56.758Z,97736.09
2023-03-24T17:04:18.308Z,97738.25
2023-03-24T17:07:34.596Z,97751.91
2023-03-24T17:10:54.922Z,97759.69
2023-03-24T17:14:13.112Z,97759.09
2023-03-24T17:17:29.479Z,97763.39
2023-03-24T17:20:46.479Z,97757.20
2023-03-24T17:24:03.883Z,97760.13
2023-03-24T17:27:23.861Z,97770.23
2023-03-24T17:30:40.308Z,97776.34
2023-03-24T17:33:56.623Z,97779.53
2023-03-24T17:37:13.247Z,97766.84
2023-03-24T17:40:31.254Z,97764.70
2023-03-24T17:43:47.822Z,97774.58
2023-03-24T17:47:04.779Z,97772.92
2023-03-24T17:50:23.259Z,97765.89
2023-03-24T17:53:40.580Z,97766.42
2023-03-24T17:56:57.164Z,97762.34
2023-03-24T18:00:17.253Z,97767.48
2023-03-24T18:03:34.416Z,97768.24
2023-03-24T18:06:50.701Z,97764.66
2023-03-24T18:10:07.248Z,97771.38
2023-03-24T18:13:23.772Z,97779.38
2023-03-24T18:16:41.163Z,97781.45
2023-03-24T18:19:59.296Z,97777.35
2023-03-24T18:23:16.966Z,97783.41
2023-03-24T18:26:34.574Z,97782.51
2023-03-24T18:29:51.293Z,97796.70
2023-03-24T18:33:08.522Z,97789.92
2023-03-24T18:36:27.771Z,97810.73
2023-03-24T18:39:42.695Z,97810.48
2023-03-24T18:42:59.019Z,97809.63
2023-03-24T18:46:18.393Z,97819.33
2023-03-24T18:49:35.238Z,97802.74
2023-03-24T18:52:51.785Z,97800.63
2023-03-24T18:56:11.872Z,97800.14
2023-03-24T18:59:29.979Z,97802.84
2023-03-24T19:02:48.621Z,97803.80
2023-03-24T19:06:10.881Z,97797.33
2023-03-24T19:09:27.780Z,97798.30
2023-03-24T19:12:44.230Z,97793.27
2023-03-24T19:16:01.299Z,97797.96
2023-03-24T19:19:19.476Z,97795.38
2023-03-24T19:22:35.905Z,97796.91
2023-03-24T19:25:54.466Z,97801.55
2023-03-24T19:29:10.909Z,97810.28
2023-03-24T19:32:27.580Z,97809.23
2023-03-24T19:35:44.142Z,97809.88
2023-03-24T19:39:00.545Z,97785.80
2023-03-24T19:42:17.440Z,97777.58
2023-03-24T19:45:34.150Z,97767.98
2023-03-24T19:48:50.372Z,97757.36
2023-03-24T19:52:07.457Z,97757.49
2023-03-24T19:55:24.176Z,97761.45
2023-03-24T19:58:40.524Z,97750.67
2023-03-24T20:01:57.886Z,97749.63
2023-03-24T20:05:15.944Z,97749.39
2023-03-24T20:08:32.194Z,97754.39
2023-03-24T20:11:48.744Z,97745.34
2023-03-24T20:15:05.077Z,97740.48
2023-03-24T20:18:21.780Z,97741.28
2023-03-24T20:21:38.153Z,97743.38
2023-03-24T20:24:55.086Z,97733.27
2023-03-24T20:28:11.648Z,97738.61
2023-03-24T20:31:30.269Z,97726.30
2023-03-24T20:34:46.806Z,97731.80
2023-03-24T20:38:04.005Z,97733.97
2023-03-24T20:41:23.186Z,97740.61
2023-03-24T20:44:39.796Z,97746.28
2023-03-24T20:47:59.361Z,97746.28
2023-03-24T20:51:17.205Z,97757.77
2023-03-24T20:54:33.529Z,97754.89
2023-03-24T20:57:51.757Z,97763.70
2023-03-24T21:01:09.685Z,97760.78
2023-03-24T21:04:27.260Z,97759.98
2023-03-24T21:07:44.840Z,97761.27
2023-03-24T21:11:04.510Z,97762.22
2023-03-24T21:14:20.830Z,97761.52
2023-03-24T21:17:37.737Z,97769.41
2023-03-24T21:21:04.610Z,97761.88
2023-03-24T21:24:21.674Z,97770.27
2023-03-24T21:27:38.169Z,97759.63
2023-03-24T21:30:54.996Z,97761.17
2023-03-24T21:34:12.165Z,97761.75
2023-03-24T21:37:30.518Z,97752.71
2023-03-24T21:40:47.847Z,97750.39
2023-03-24T21:44:04.836Z,97740.20
2023-03-24T21:47:21.310Z,97734.97
2023-03-24T21:50:39.881Z,97734.86
2023-03-24T21:53:56.381Z,97731.05
2023-03-24T21:57:13.499Z,97741.03
2023-03-24T22:00:34.151Z,97731.27
2023-03-24T22:03:51.654Z,97735.20
2023-03-24T22:07:08.407Z,97740.06
2023-03-24T22:10:29.909Z,97748.55
2023-03-24T22:13:46.777Z,97744.25
2023-03-24T22:17:03.108Z,97744.84
2023-03-24T22:20:21.216Z,97736.84
2023-03-24T22:23:40.559Z,97741.00
2023-03-24T22:26:58.902Z,97741.83
2023-03-24T22:30:19.939Z,97739.84
2023-03-24T22:33:37.064Z,97734.27
2023-03-24T22:36:53.532Z,97738.22
2023-03-24T22:40:10.482Z,97732.64
2023-03-24T22:43:27.555Z,97729.05
2023-03-24T22:46:43.958Z,97734.31
2023-03-24T22:50:00.582Z,97730.36
2023-03-24T22:53:17.417Z,97723.39
2023-03-24T22:56:34.190Z,97728.14
2023-03-24T22:59:50.615Z,97725.09
2023-03-24T23:03:07.084Z,97720.00
2023-03-24T23:06:23.632Z,97713.97
2023-03-24T23:09:42.040Z,97708.90
2023-03-24T23:12:58.715Z,97710.27
2023-03-24T23:16:16.703Z,97712.47
2023-03-24T23:19:35.156Z,97705.28
2023-03-24T23:22:52.209Z,97707.71
2023-03-24T23:26:08.910Z,97721.88
2023-03-24T23:29:26.245Z,97719.30
2023-03-24T23:32:47.336Z,97718.94
2023-03-24T23:36:08.426Z,97721.61
2023-03-24T23:39:27.094Z,97714.68
2023-03-24T23:42:43.965Z,97711.86
2023-03-24T23:46:04.089Z,97711.50
2023-03-24T23:49:20.889Z,97700.73
2023-03-24T23:52:37.306Z,97701.04
2023-03-24T23:55:56.488Z,97694.91
2023-03-24T23:59:13.854Z,97698.02
